createdAt,value
2018-02-17T00:00:02.392Z,1.5
2018-02-17T00:15:02.652Z,1.4
2018-02-17T00:30:02.982Z,1.3
2018-02-17T00:45:02.271Z,1.2
2018-02-17T01:00:02.511Z,0.9
2018-02-17T01:15:02.746Z,0.6
2018-02-17T01:30:03.103Z,0.5
2018-02-17T01:45:02.411Z,0.4
2018-02-17T02:00:02.628Z,0.4
2018-02-17T02:15:02.905Z,0.3
2018-02-17T02:30:02.258Z,0.2
2018-02-17T02:45:02.513Z,0.4
2018-02-17T03:00:02.761Z,0.3
2018-02-17T03:15:03.000Z,0.2
2018-02-17T03:30:02.355Z,0.1
2018-02-17T03:45:02.628Z,0
2018-02-17T04:00:02.895Z,0.1
2018-02-17T04:15:03.142Z,0.1
2018-02-17T04:30:02.517Z,-0.1
2018-02-17T04:45:02.747Z,-0.1
2018-02-17T05:00:02.937Z,-0.1
2018-02-17T05:15:03.249Z,-0.1
2018-02-17T05:30:02.575Z,-0.1
2018-02-17T05:45:02.838Z,-0.1
2018-02-17T06:00:03.096Z,0
2018-02-17T06:15:02.409Z,0.1
2018-02-17T06:30:02.866Z,0.1
2018-02-17T06:45:03.138Z,0.1
2018-02-17T07:00:02.411Z,0.2
2018-02-17T07:15:02.633Z,0.2
2018-02-17T07:30:02.921Z,0.4
2018-02-17T07:45:03.201Z,0.6
2018-02-17T08:00:02.509Z,0.6
2018-02-17T08:15:02.710Z,0.9
2018-02-17T08:30:03.033Z,1
2018-02-17T08:45:02.321Z,1.1
2018-02-17T09:00:02.622Z,1.1
2018-02-17T09:15:02.899Z,1.2
2018-02-17T09:30:02.195Z,1.4
2018-02-17T09:45:02.425Z,1.4
2018-02-17T10:00:02.693Z,1.4
2018-02-17T10:15:03.204Z,1.4
2018-02-17T10:30:02.554Z,1.4
2018-02-17T10:45:02.832Z,1.6
2018-02-17T11:00:03.117Z,1.4
2018-02-17T11:15:02.370Z,1.5
2018-02-17T11:30:02.690Z,1.6
2018-02-17T11:45:02.996Z,1.6
2018-02-17T12:00:02.284Z,1.8
2018-02-17T12:15:02.647Z,1.8
2018-02-17T12:30:02.961Z,1.8
2018-02-17T12:45:02.258Z,1.8
2018-02-17T13:00:02.482Z,1.8
2018-02-17T13:15:02.762Z,1.7
2018-02-17T13:30:03.091Z,1.7
2018-02-17T13:45:02.403Z,1.7
2018-02-17T14:00:02.766Z,1.6
2018-02-17T14:15:02.984Z,1.2
2018-02-17T14:30:02.385Z,0.8
2018-02-17T14:45:02.667Z,0.6
2018-02-17T15:00:02.897Z,0.5
2018-02-17T15:15:03.186Z,0.4
2018-02-17T15:30:02.478Z,0.5
2018-02-17T15:45:02.768Z,0.4
2018-02-17T16:00:03.012Z,0.4
2018-02-17T16:15:02.302Z,0.4
2018-02-17T16:30:02.620Z,0.3
2018-02-17T16:45:02.865Z,0.2
2018-02-17T17:00:03.112Z,0.2
2018-02-17T17:15:02.396Z,0.2
2018-02-17T17:30:02.802Z,0.1
2018-02-17T17:45:03.001Z,0.1
2018-02-17T18:00:02.295Z,0.1
2018-02-17T18:15:02.528Z,0.1
2018-02-17T18:30:02.876Z,0.1
2018-02-17T18:45:03.100Z,0.1
2018-02-17T19:00:02.386Z,0.1
2018-02-17T19:15:02.676Z,0.2
2018-02-17T19:30:02.985Z,0.1
2018-02-17T19:45:02.269Z,0.1
2018-02-17T20:00:02.712Z,0.1
2018-02-17T20:15:02.927Z,0.1
2018-02-17T20:30:02.319Z,0.1
2018-02-17T20:45:02.596Z,0.1
2018-02-17T21:00:02.865Z,0.1
2018-02-17T21:15:03.207Z,0.1
2018-02-17T21:30:02.409Z,0.1
2018-02-17T21:45:02.696Z,0.1
2018-02-17T22:00:02.999Z,0.1
2018-02-17T22:15:02.257Z,0.1
2018-02-17T22:30:02.649Z,0.1
2018-02-17T22:45:02.906Z,0.1
2018-02-17T23:00:03.182Z,0.1
2018-02-17T23:15:02.503Z,0.1
2018-02-17T23:30:02.936Z,0.1
2018-02-17T23:45:03.211Z,0.1
